sensor_id;sensor_type;location;lat;lon;timestamp;temperature;humidity
40676;DHT22;26359;48.750;9.314;2023-04-06T00:01:27;3.70;99.90
40676;DHT22;26359;48.750;9.314;2023-04-06T00:03:52;3.60;99.90
40676;DHT22;26359;48.750;9.314;2023-04-06T00:06:18;3.60;99.90
40676;DHT22;26359;48.750;9.314;2023-04-06T00:08:43;3.50;99.90
40676;DHT22;26359;48.750;9.314;2023-04-06T00:11:10;3.60;99.90
40676;DHT22;26359;48.750;9.314;2023-04-06T00:13:35;3.60;99.90
40676;DHT22;26359;48.750;9.314;2023-04-06T00:16:01;3.60;99.90
40676;DHT22;26359;48.750;9.314;2023-04-06T00:18:26;3.60;99.90
40676;DHT22;26359;48.750;9.314;2023-04-06T00:20:52;3.50;99.90
40676;DHT22;26359;48.750;9.314;2023-04-06T00:23:17;3.40;99.90
40676;DHT22;26359;48.750;9.314;2023-04-06T00:25:43;3.40;99.90
40676;DHT22;26359;48.750;9.314;2023-04-06T00:28:09;3.40;99.90
40676;DHT22;26359;48.750;9.314;2023-04-06T00:30:34;3.30;99.90
40676;DHT22;26359;48.750;9.314;2023-04-06T00:33:00;3.30;99.90
40676;DHT22;26359;48.750;9.314;2023-04-06T00:35:26;3.20;99.90
40676;DHT22;26359;48.750;9.314;2023-04-06T00:37:51;3.20;99.90
40676;DHT22;26359;48.750;9.314;2023-04-06T00:40:17;3.20;99.90
40676;DHT22;26359;48.750;9.314;2023-04-06T00:42:43;3.20;99.90
40676;DHT22;26359;48.750;9.314;2023-04-06T00:45:09;3.20;99.90
40676;DHT22;26359;48.750;9.314;2023-04-06T00:47:35;3.20;99.90
40676;DHT22;26359;48.750;9.314;2023-04-06T00:50:01;3.20;99.90
40676;DHT22;26359;48.750;9.314;2023-04-06T00:52:26;3.20;99.90
40676;DHT22;26359;48.750;9.314;2023-04-06T00:54:52;3.20;99.90
40676;DHT22;26359;48.750;9.314;2023-04-06T00:57:17;3.10;99.90
40676;DHT22;26359;48.750;9.314;2023-04-06T00:59:43;3.00;99.90
40676;DHT22;26359;48.750;9.314;2023-04-06T01:02:09;3.00;99.90
40676;DHT22;26359;48.750;9.314;2023-04-06T01:04:35;3.00;99.90
40676;DHT22;26359;48.750;9.314;2023-04-06T01:07:01;3.00;99.90
40676;DHT22;26359;48.750;9.314;2023-04-06T01:09:29;3.00;99.90
40676;DHT22;26359;48.750;9.314;2023-04-06T01:11:56;3.00;99.90
40676;DHT22;26359;48.750;9.314;2023-04-06T01:14:22;3.00;99.90
40676;DHT22;26359;48.750;9.314;2023-04-06T01:16:48;2.90;99.90
40676;DHT22;26359;48.750;9.314;2023-04-06T01:19:13;3.00;99.90
40676;DHT22;26359;48.750;9.314;2023-04-06T01:21:40;3.00;99.90
40676;DHT22;26359;48.750;9.314;2023-04-06T01:24:06;2.90;99.90
40676;DHT22;26359;48.750;9.314;2023-04-06T01:26:32;2.80;99.90
40676;DHT22;26359;48.750;9.314;2023-04-06T01:28:58;2.70;99.90
40676;DHT22;26359;48.750;9.314;2023-04-06T01:31:24;2.80;99.90
40676;DHT22;26359;48.750;9.314;2023-04-06T01:33:50;2.80;99.90
40676;DHT22;26359;48.750;9.314;2023-04-06T01:36:16;2.90;99.90
40676;DHT22;26359;48.750;9.314;2023-04-06T01:38:41;2.90;99.90
40676;DHT22;26359;48.750;9.314;2023-04-06T01:41:08;2.90;99.90
40676;DHT22;26359;48.750;9.314;2023-04-06T01:43:33;2.80;99.90
40676;DHT22;26359;48.750;9.314;2023-04-06T01:45:59;2.70;99.90
40676;DHT22;26359;48.750;9.314;2023-04-06T01:48:26;2.70;99.90
40676;DHT22;26359;48.750;9.314;2023-04-06T01:50:52;2.60;99.90
40676;DHT22;26359;48.750;9.314;2023-04-06T01:53:17;2.60;99.90
40676;DHT22;26359;48.750;9.314;2023-04-06T01:55:43;2.60;99.90
40676;DHT22;26359;48.750;9.314;2023-04-06T01:58:08;2.60;99.90
40676;DHT22;26359;48.750;9.314;2023-04-06T02:00:34;2.60;99.90
40676;DHT22;26359;48.750;9.314;2023-04-06T02:03:00;2.60;99.90
40676;DHT22;26359;48.750;9.314;2023-04-06T02:05:26;2.50;99.90
40676;DHT22;26359;48.750;9.314;2023-04-06T02:07:52;2.50;99.90
40676;DHT22;26359;48.750;9.314;2023-04-06T02:10:17;2.40;99.90
40676;DHT22;26359;48.750;9.314;2023-04-06T02:12:43;2.40;99.90
40676;DHT22;26359;48.750;9.314;2023-04-06T02:15:09;2.50;99.90
40676;DHT22;26359;48.750;9.314;2023-04-06T02:17:35;2.50;99.90
40676;DHT22;26359;48.750;9.314;2023-04-06T02:20:00;2.60;99.90
40676;DHT22;26359;48.750;9.314;2023-04-06T02:22:26;2.50;99.90
40676;DHT22;26359;48.750;9.314;2023-04-06T02:24:51;2.40;99.90
40676;DHT22;26359;48.750;9.314;2023-04-06T02:27:17;2.30;99.90
40676;DHT22;26359;48.750;9.314;2023-04-06T02:29:42;2.30;99.90
40676;DHT22;26359;48.750;9.314;2023-04-06T02:32:08;2.40;99.90
40676;DHT22;26359;48.750;9.314;2023-04-06T02:34:33;2.30;99.90
40676;DHT22;26359;48.750;9.314;2023-04-06T02:36:59;2.30;99.90
40676;DHT22;26359;48.750;9.314;2023-04-06T02:39:24;2.30;99.90
40676;DHT22;26359;48.750;9.314;2023-04-06T02:41:50;2.20;99.90
40676;DHT22;26359;48.750;9.314;2023-04-06T02:44:15;2.10;99.90
40676;DHT22;26359;48.750;9.314;2023-04-06T02:46:41;2.00;99.90
40676;DHT22;26359;48.750;9.314;2023-04-06T02:49:06;2.10;99.90
40676;DHT22;26359;48.750;9.314;2023-04-06T02:51:32;2.20;99.90
40676;DHT22;26359;48.750;9.314;2023-04-06T02:53:58;2.20;99.90
40676;DHT22;26359;48.750;9.314;2023-04-06T02:56:24;2.20;99.90
40676;DHT22;26359;48.750;9.314;2023-04-06T02:58:50;2.10;99.90
40676;DHT22;26359;48.750;9.314;2023-04-06T03:01:15;2.10;99.90
40676;DHT22;26359;48.750;9.314;2023-04-06T03:03:41;2.10;99.90
40676;DHT22;26359;48.750;9.314;2023-04-06T03:06:06;2.10;99.90
40676;DHT22;26359;48.750;9.314;2023-04-06T03:08:32;2.00;99.90
40676;DHT22;26359;48.750;9.314;2023-04-06T03:10:57;2.10;99.90
40676;DHT22;26359;48.750;9.314;2023-04-06T03:13:23;2.10;99.90
40676;DHT22;26359;48.750;9.314;2023-04-06T03:15:49;2.10;99.90
40676;DHT22;26359;48.750;9.314;2023-04-06T03:18:14;2.10;99.90
40676;DHT22;26359;48.750;9.314;2023-04-06T03:20:40;2.00;99.90
40676;DHT22;26359;48.750;9.314;2023-04-06T03:23:06;1.90;99.90
40676;DHT22;26359;48.750;9.314;2023-04-06T03:25:31;1.90;99.90
40676;DHT22;26359;48.750;9.314;2023-04-06T03:27:57;2.00;99.90
40676;DHT22;26359;48.750;9.314;2023-04-06T03:30:22;2.00;99.90
40676;DHT22;26359;48.750;9.314;2023-04-06T03:32:48;2.00;99.90
40676;DHT22;26359;48.750;9.314;2023-04-06T03:35:13;1.80;99.90
40676;DHT22;26359;48.750;9.314;2023-04-06T03:37:39;1.70;99.90
40676;DHT22;26359;48.750;9.314;2023-04-06T03:40:05;1.80;99.90
40676;DHT22;26359;48.750;9.314;2023-04-06T03:42:31;1.70;99.90
40676;DHT22;26359;48.750;9.314;2023-04-06T03:44:58;1.80;99.90
40676;DHT22;26359;48.750;9.314;2023-04-06T03:47:24;1.80;99.90
40676;DHT22;26359;48.750;9.314;2023-04-06T03:49:49;1.80;99.90
40676;DHT22;26359;48.750;9.314;2023-04-06T03:52:15;1.80;99.90
40676;DHT22;26359;48.750;9.314;2023-04-06T03:54:41;1.80;99.90
40676;DHT22;26359;48.750;9.314;2023-04-06T03:57:06;1.80;99.90
40676;DHT22;26359;48.750;9.314;2023-04-06T03:59:32;1.70;99.90
40676;DHT22;26359;48.750;9.314;2023-04-06T04:01:57;1.70;99.90
40676;DHT22;26359;48.750;9.314;2023-04-06T04:04:23;1.70;99.90
40676;DHT22;26359;48.750;9.314;2023-04-06T04:06:48;1.60;99.90
40676;DHT22;26359;48.750;9.314;2023-04-06T04:09:14;1.60;99.90
40676;DHT22;26359;48.750;9.314;2023-04-06T04:11:39;1.60;99.90
40676;DHT22;26359;48.750;9.314;2023-04-06T04:14:05;1.50;99.90
40676;DHT22;26359;48.750;9.314;2023-04-06T04:16:30;1.60;99.90
40676;DHT22;26359;48.750;9.314;2023-04-06T04:18:56;1.60;99.90
40676;DHT22;26359;48.750;9.314;2023-04-06T04:21:23;1.50;99.90
40676;DHT22;26359;48.750;9.314;2023-04-06T04:23:49;1.50;99.90
40676;DHT22;26359;48.750;9.314;2023-04-06T04:26:15;1.50;99.90
40676;DHT22;26359;48.750;9.314;2023-04-06T04:28:40;1.50;99.90
40676;DHT22;26359;48.750;9.314;2023-04-06T04:31:06;1.50;99.90
40676;DHT22;26359;48.750;9.314;2023-04-06T04:33:31;1.50;99.90
40676;DHT22;26359;48.750;9.314;2023-04-06T04:35:57;1.30;99.90
40676;DHT22;26359;48.750;9.314;2023-04-06T04:38:22;1.30;99.90
40676;DHT22;26359;48.750;9.314;2023-04-06T04:40:48;1.30;99.90
40676;DHT22;26359;48.750;9.314;2023-04-06T04:43:13;1.40;99.90
40676;DHT22;26359;48.750;9.314;2023-04-06T04:45:39;1.30;99.90
40676;DHT22;26359;48.750;9.314;2023-04-06T04:48:04;1.30;99.90
40676;DHT22;26359;48.750;9.314;2023-04-06T04:50:31;1.30;99.90
40676;DHT22;26359;48.750;9.314;2023-04-06T04:52:57;1.30;99.90
40676;DHT22;26359;48.750;9.314;2023-04-06T04:55:22;1.30;99.90
40676;DHT22;26359;48.750;9.314;2023-04-06T04:57:48;1.30;99.90
40676;DHT22;26359;48.750;9.314;2023-04-06T05:00:13;1.30;99.90
40676;DHT22;26359;48.750;9.314;2023-04-06T05:02:39;1.30;99.90
40676;DHT22;26359;48.750;9.314;2023-04-06T05:05:05;1.20;99.90
40676;DHT22;26359;48.750;9.314;2023-04-06T05:07:31;1.20;99.90
40676;DHT22;26359;48.750;9.314;2023-04-06T05:09:56;1.30;99.90
40676;DHT22;26359;48.750;9.314;2023-04-06T05:12:22;1.40;99.90
40676;DHT22;26359;48.750;9.314;2023-04-06T05:14:48;1.40;99.90
40676;DHT22;26359;48.750;9.314;2023-04-06T05:17:13;1.40;99.90
40676;DHT22;26359;48.750;9.314;2023-04-06T05:19:39;1.40;99.90
40676;DHT22;26359;48.750;9.314;2023-04-06T05:22:04;1.40;99.90
40676;DHT22;26359;48.750;9.314;2023-04-06T05:24:30;1.40;99.90
40676;DHT22;26359;48.750;9.314;2023-04-06T05:26:55;1.40;99.90
40676;DHT22;26359;48.750;9.314;2023-04-06T05:29:21;1.40;99.90
40676;DHT22;26359;48.750;9.314;2023-04-06T05:31:47;1.40;99.90
40676;DHT22;26359;48.750;9.314;2023-04-06T05:34:12;1.40;99.90
40676;DHT22;26359;48.750;9.314;2023-04-06T05:36:38;1.40;99.90
40676;DHT22;26359;48.750;9.314;2023-04-06T05:39:05;1.40;99.90
40676;DHT22;26359;48.750;9.314;2023-04-06T05:41:31;1.40;99.90
40676;DHT22;26359;48.750;9.314;2023-04-06T05:43:57;1.40;99.90
40676;DHT22;26359;48.750;9.314;2023-04-06T05:46:22;1.40;99.90
40676;DHT22;26359;48.750;9.314;2023-04-06T05:48:48;1.40;99.90
40676;DHT22;26359;48.750;9.314;2023-04-06T05:51:13;1.50;99.90
40676;DHT22;26359;48.750;9.314;2023-04-06T05:53:39;1.40;99.90
40676;DHT22;26359;48.750;9.314;2023-04-06T05:56:14;1.60;99.90
40676;DHT22;26359;48.750;9.314;2023-04-06T05:58:41;1.70;99.90
40676;DHT22;26359;48.750;9.314;2023-04-06T06:01:06;1.70;99.90
40676;DHT22;26359;48.750;9.314;2023-04-06T06:03:32;1.60;99.90
40676;DHT22;26359;48.750;9.314;2023-04-06T06:06:01;1.70;99.90
40676;DHT22;26359;48.750;9.314;2023-04-06T06:08:27;1.60;99.90
40676;DHT22;26359;48.750;9.314;2023-04-06T06:10:53;1.60;99.90
40676;DHT22;26359;48.750;9.314;2023-04-06T06:13:19;1.50;99.90
40676;DHT22;26359;48.750;9.314;2023-04-06T06:15:45;1.50;99.90
40676;DHT22;26359;48.750;9.314;2023-04-06T06:18:10;1.40;99.90
40676;DHT22;26359;48.750;9.314;2023-04-06T06:20:36;1.60;99.90
40676;DHT22;26359;48.750;9.314;2023-04-06T06:23:01;1.90;99.90
40676;DHT22;26359;48.750;9.314;2023-04-06T06:25:27;2.10;99.90
40676;DHT22;26359;48.750;9.314;2023-04-06T06:27:56;2.10;99.90
40676;DHT22;26359;48.750;9.314;2023-04-06T06:30:21;2.00;99.90
40676;DHT22;26359;48.750;9.314;2023-04-06T06:32:47;1.90;99.90
40676;DHT22;26359;48.750;9.314;2023-04-06T06:35:12;1.90;99.90
40676;DHT22;26359;48.750;9.314;2023-04-06T06:37:38;1.90;99.90
40676;DHT22;26359;48.750;9.314;2023-04-06T06:40:04;1.90;99.90
40676;DHT22;26359;48.750;9.314;2023-04-06T06:42:29;1.90;99.90
40676;DHT22;26359;48.750;9.314;2023-04-06T06:44:55;1.90;99.90
40676;DHT22;26359;48.750;9.314;2023-04-06T06:47:20;2.00;99.90
40676;DHT22;26359;48.750;9.314;2023-04-06T06:49:46;2.00;99.90
40676;DHT22;26359;48.750;9.314;2023-04-06T06:52:11;2.10;99.90
40676;DHT22;26359;48.750;9.314;2023-04-06T06:54:37;2.10;99.90
40676;DHT22;26359;48.750;9.314;2023-04-06T06:57:02;2.10;99.90
40676;DHT22;26359;48.750;9.314;2023-04-06T06:59:28;2.20;99.90
40676;DHT22;26359;48.750;9.314;2023-04-06T07:01:54;2.20;99.90
40676;DHT22;26359;48.750;9.314;2023-04-06T07:04:19;2.20;99.90
40676;DHT22;26359;48.750;9.314;2023-04-06T07:06:45;2.30;99.90
40676;DHT22;26359;48.750;9.314;2023-04-06T07:09:11;2.30;99.90
40676;DHT22;26359;48.750;9.314;2023-04-06T07:11:36;2.30;99.90
40676;DHT22;26359;48.750;9.314;2023-04-06T07:14:02;2.30;99.90
40676;DHT22;26359;48.750;9.314;2023-04-06T07:16:27;2.40;99.90
40676;DHT22;26359;48.750;9.314;2023-04-06T07:18:53;2.50;99.90
40676;DHT22;26359;48.750;9.314;2023-04-06T07:21:18;2.50;99.90
40676;DHT22;26359;48.750;9.314;2023-04-06T07:23:44;2.60;99.90
40676;DHT22;26359;48.750;9.314;2023-04-06T07:26:10;2.70;99.90
40676;DHT22;26359;48.750;9.314;2023-04-06T07:28:35;2.70;99.90
40676;DHT22;26359;48.750;9.314;2023-04-06T07:31:01;2.80;99.90
40676;DHT22;26359;48.750;9.314;2023-04-06T07:33:26;2.90;99.90
40676;DHT22;26359;48.750;9.314;2023-04-06T07:35:55;3.00;99.90
40676;DHT22;26359;48.750;9.314;2023-04-06T07:38:21;3.00;99.90
40676;DHT22;26359;48.750;9.314;2023-04-06T07:40:47;3.10;99.90
40676;DHT22;26359;48.750;9.314;2023-04-06T07:43:12;3.30;99.90
40676;DHT22;26359;48.750;9.314;2023-04-06T07:45:38;3.30;99.90
40676;DHT22;26359;48.750;9.314;2023-04-06T07:48:03;3.40;99.90
40676;DHT22;26359;48.750;9.314;2023-04-06T07:50:29;3.50;99.90
40676;DHT22;26359;48.750;9.314;2023-04-06T07:52:54;3.60;99.90
40676;DHT22;26359;48.750;9.314;2023-04-06T07:55:20;3.70;99.90
40676;DHT22;26359;48.750;9.314;2023-04-06T07:57:46;3.70;99.90
40676;DHT22;26359;48.750;9.314;2023-04-06T08:00:13;3.90;99.90
40676;DHT22;26359;48.750;9.314;2023-04-06T08:02:38;3.90;99.90
40676;DHT22;26359;48.750;9.314;2023-04-06T08:05:04;4.00;99.90
40676;DHT22;26359;48.750;9.314;2023-04-06T08:07:31;4.10;99.90
40676;DHT22;26359;48.750;9.314;2023-04-06T08:09:56;4.20;99.90
40676;DHT22;26359;48.750;9.314;2023-04-06T08:12:22;4.40;99.90
40676;DHT22;26359;48.750;9.314;2023-04-06T08:14:47;4.50;99.90
40676;DHT22;26359;48.750;9.314;2023-04-06T08:17:13;4.60;99.90
40676;DHT22;26359;48.750;9.314;2023-04-06T08:19:38;4.70;99.90
40676;DHT22;26359;48.750;9.314;2023-04-06T08:22:04;4.80;99.90
40676;DHT22;26359;48.750;9.314;2023-04-06T08:24:30;5.00;99.90
40676;DHT22;26359;48.750;9.314;2023-04-06T08:26:57;5.10;99.90
40676;DHT22;26359;48.750;9.314;2023-04-06T08:29:23;5.30;99.90
40676;DHT22;26359;48.750;9.314;2023-04-06T08:31:48;5.30;99.90
40676;DHT22;26359;48.750;9.314;2023-04-06T08:34:14;5.50;99.90
40676;DHT22;26359;48.750;9.314;2023-04-06T08:36:41;5.50;99.90
40676;DHT22;26359;48.750;9.314;2023-04-06T08:39:06;5.60;99.90
40676;DHT22;26359;48.750;9.314;2023-04-06T08:41:32;5.60;99.90
40676;DHT22;26359;48.750;9.314;2023-04-06T08:44:02;5.80;99.90
40676;DHT22;26359;48.750;9.314;2023-04-06T08:46:31;5.90;99.90
40676;DHT22;26359;48.750;9.314;2023-04-06T08:48:58;6.10;99.90
40676;DHT22;26359;48.750;9.314;2023-04-06T08:51:24;6.10;99.90
40676;DHT22;26359;48.750;9.314;2023-04-06T08:53:53;6.10;99.90
40676;DHT22;26359;48.750;9.314;2023-04-06T08:56:23;6.30;99.90
40676;DHT22;26359;48.750;9.314;2023-04-06T08:58:49;6.40;99.90
40676;DHT22;26359;48.750;9.314;2023-04-06T09:01:17;6.50;99.90
40676;DHT22;26359;48.750;9.314;2023-04-06T09:03:44;6.60;99.90
40676;DHT22;26359;48.750;9.314;2023-04-06T09:06:11;6.80;99.90
40676;DHT22;26359;48.750;9.314;2023-04-06T09:08:39;6.90;99.90
40676;DHT22;26359;48.750;9.314;2023-04-06T09:11:06;7.00;99.90
40676;DHT22;26359;48.750;9.314;2023-04-06T09:13:53;7.20;99.90
40676;DHT22;26359;48.750;9.314;2023-04-06T09:16:20;7.30;99.90
40676;DHT22;26359;48.750;9.314;2023-04-06T09:18:47;7.40;99.90
40676;DHT22;26359;48.750;9.314;2023-04-06T09:21:13;7.60;99.90
40676;DHT22;26359;48.750;9.314;2023-04-06T09:23:41;7.60;99.90
40676;DHT22;26359;48.750;9.314;2023-04-06T09:26:15;7.80;99.90
40676;DHT22;26359;48.750;9.314;2023-04-06T09:28:52;8.00;99.90
40676;DHT22;26359;48.750;9.314;2023-04-06T09:31:25;8.20;99.90
40676;DHT22;26359;48.750;9.314;2023-04-06T09:33:51;8.50;99.90
40676;DHT22;26359;48.750;9.314;2023-04-06T09:36:17;8.50;99.90
40676;DHT22;26359;48.750;9.314;2023-04-06T09:38:57;8.70;99.90
40676;DHT22;26359;48.750;9.314;2023-04-06T09:41:27;8.90;99.90
40676;DHT22;26359;48.750;9.314;2023-04-06T09:44:06;8.90;99.90
40676;DHT22;26359;48.750;9.314;2023-04-06T09:46:38;9.00;99.90
40676;DHT22;26359;48.750;9.314;2023-04-06T09:49:05;9.20;99.90
40676;DHT22;26359;48.750;9.314;2023-04-06T09:51:37;9.30;99.90
40676;DHT22;26359;48.750;9.314;2023-04-06T09:54:03;9.60;99.90
40676;DHT22;26359;48.750;9.314;2023-04-06T09:56:39;9.70;99.90
40676;DHT22;26359;48.750;9.314;2023-04-06T09:59:37;9.90;99.90
40676;DHT22;26359;48.750;9.314;2023-04-06T10:01:58;10.10;99.90
40676;DHT22;26359;48.750;9.314;2023-04-06T10:04:43;10.30;98.20
40676;DHT22;26359;48.750;9.314;2023-04-06T10:07:12;10.20;98.60
40676;DHT22;26359;48.750;9.314;2023-04-06T10:09:38;10.30;98.80
40676;DHT22;26359;48.750;9.314;2023-04-06T10:12:07;10.60;97.60
40676;DHT22;26359;48.750;9.314;2023-04-06T10:14:35;11.00;96.90
40676;DHT22;26359;48.750;9.314;2023-04-06T10:17:05;11.20;96.40
40676;DHT22;26359;48.750;9.314;2023-04-06T10:22:10;11.90;94.30
40676;DHT22;26359;48.750;9.314;2023-04-06T10:24:40;12.10;92.70
40676;DHT22;26359;48.750;9.314;2023-04-06T10:27:06;12.30;93.80
40676;DHT22;26359;48.750;9.314;2023-04-06T10:29:45;12.70;94.60
40676;DHT22;26359;48.750;9.314;2023-04-06T10:32:12;13.10;91.60
40676;DHT22;26359;48.750;9.314;2023-04-06T10:34:38;13.30;92.40
40676;DHT22;26359;48.750;9.314;2023-04-06T10:37:16;13.70;92.30
40676;DHT22;26359;48.750;9.314;2023-04-06T10:40:02;13.90;91.30
40676;DHT22;26359;48.750;9.314;2023-04-06T10:42:37;14.00;88.00
40676;DHT22;26359;48.750;9.314;2023-04-06T10:45:07;14.00;88.20
40676;DHT22;26359;48.750;9.314;2023-04-06T10:47:40;14.10;86.20
40676;DHT22;26359;48.750;9.314;2023-04-06T10:50:06;14.10;85.10
40676;DHT22;26359;48.750;9.314;2023-04-06T10:52:31;13.70;85.50
40676;DHT22;26359;48.750;9.314;2023-04-06T10:54:57;13.60;84.10
40676;DHT22;26359;48.750;9.314;2023-04-06T10:57:29;13.90;89.40
40676;DHT22;26359;48.750;9.314;2023-04-06T10:59:56;14.20;83.70
40676;DHT22;26359;48.750;9.314;2023-04-06T11:02:21;14.20;84.60
40676;DHT22;26359;48.750;9.314;2023-04-06T11:04:55;14.50;87.10
40676;DHT22;26359;48.750;9.314;2023-04-06T11:07:27;14.80;83.80
40676;DHT22;26359;48.750;9.314;2023-04-06T11:09:55;15.00;84.40
40676;DHT22;26359;48.750;9.314;2023-04-06T11:12:28;15.30;82.90
40676;DHT22;26359;48.750;9.314;2023-04-06T11:14:59;15.20;82.60
40676;DHT22;26359;48.750;9.314;2023-04-06T11:17:30;15.30;81.20
40676;DHT22;26359;48.750;9.314;2023-04-06T11:19:56;15.30;82.60
40676;DHT22;26359;48.750;9.314;2023-04-06T11:22:22;15.30;75.50
40676;DHT22;26359;48.750;9.314;2023-04-06T11:24:47;14.60;76.50
40676;DHT22;26359;48.750;9.314;2023-04-06T11:27:14;14.30;76.50
40676;DHT22;26359;48.750;9.314;2023-04-06T11:29:42;14.50;75.90
40676;DHT22;26359;48.750;9.314;2023-04-06T11:32:08;14.80;75.70
40676;DHT22;26359;48.750;9.314;2023-04-06T11:34:39;15.00;74.00
40676;DHT22;26359;48.750;9.314;2023-04-06T11:37:11;15.40;81.10
40676;DHT22;26359;48.750;9.314;2023-04-06T11:39:46;15.70;72.50
40676;DHT22;26359;48.750;9.314;2023-04-06T11:42:12;15.40;70.60
40676;DHT22;26359;48.750;9.314;2023-04-06T11:44:40;15.30;75.10
40676;DHT22;26359;48.750;9.314;2023-04-06T11:47:10;15.60;76.20
40676;DHT22;26359;48.750;9.314;2023-04-06T11:49:41;15.90;73.20
40676;DHT22;26359;48.750;9.314;2023-04-06T11:52:17;15.90;69.60
40676;DHT22;26359;48.750;9.314;2023-04-06T11:54:42;15.70;70.80
40676;DHT22;26359;48.750;9.314;2023-04-06T11:57:09;15.70;70.80
40676;DHT22;26359;48.750;9.314;2023-04-06T11:59:34;15.60;73.60
40676;DHT22;26359;48.750;9.314;2023-04-06T12:02:04;15.60;68.00
40676;DHT22;26359;48.750;9.314;2023-04-06T12:04:29;15.60;73.90
40676;DHT22;26359;48.750;9.314;2023-04-06T12:06:55;15.90;70.30
40676;DHT22;26359;48.750;9.314;2023-04-06T12:09:21;16.10;67.10
40676;DHT22;26359;48.750;9.314;2023-04-06T12:11:46;15.90;69.70
40676;DHT22;26359;48.750;9.314;2023-04-06T12:14:12;15.90;69.20
40676;DHT22;26359;48.750;9.314;2023-04-06T12:16:38;16.10;65.90
40676;DHT22;26359;48.750;9.314;2023-04-06T12:19:04;16.40;64.00
40676;DHT22;26359;48.750;9.314;2023-04-06T12:21:30;15.80;63.70
40676;DHT22;26359;48.750;9.314;2023-04-06T12:23:57;15.90;65.70
40676;DHT22;26359;48.750;9.314;2023-04-06T12:26:22;15.90;64.40
40676;DHT22;26359;48.750;9.314;2023-04-06T12:28:48;15.90;62.70
40676;DHT22;26359;48.750;9.314;2023-04-06T12:31:18;15.80;65.60
40676;DHT22;26359;48.750;9.314;2023-04-06T12:33:46;16.10;65.10
40676;DHT22;26359;48.750;9.314;2023-04-06T12:36:16;16.40;64.60
40676;DHT22;26359;48.750;9.314;2023-04-06T12:38:44;16.70;65.70
40676;DHT22;26359;48.750;9.314;2023-04-06T12:41:11;16.50;63.60
40676;DHT22;26359;48.750;9.314;2023-04-06T12:43:37;16.60;66.80
40676;DHT22;26359;48.750;9.314;2023-04-06T12:46:03;16.80;61.40
40676;DHT22;26359;48.750;9.314;2023-04-06T12:48:28;16.70;60.30
40676;DHT22;26359;48.750;9.314;2023-04-06T12:51:04;16.20;60.30
40676;DHT22;26359;48.750;9.314;2023-04-06T12:53:32;15.70;59.30
40676;DHT22;26359;48.750;9.314;2023-04-06T12:55:58;15.60;61.80
40676;DHT22;26359;48.750;9.314;2023-04-06T12:58:25;16.00;61.20
40676;DHT22;26359;48.750;9.314;2023-04-06T13:00:57;16.20;61.60
40676;DHT22;26359;48.750;9.314;2023-04-06T13:03:27;15.90;62.40
40676;DHT22;26359;48.750;9.314;2023-04-06T13:05:53;15.80;64.40
40676;DHT22;26359;48.750;9.314;2023-04-06T13:08:19;16.00;60.40
40676;DHT22;26359;48.750;9.314;2023-04-06T13:10:50;16.30;60.60
40676;DHT22;26359;48.750;9.314;2023-04-06T13:13:22;16.60;66.20
40676;DHT22;26359;48.750;9.314;2023-04-06T13:15:48;16.30;61.50
40676;DHT22;26359;48.750;9.314;2023-04-06T13:18:14;16.50;65.20
40676;DHT22;26359;48.750;9.314;2023-04-06T13:20:41;16.80;61.30
40676;DHT22;26359;48.750;9.314;2023-04-06T13:23:07;17.10;61.80
40676;DHT22;26359;48.750;9.314;2023-04-06T13:25:33;17.30;60.60
40676;DHT22;26359;48.750;9.314;2023-04-06T13:27:58;17.50;60.10
40676;DHT22;26359;48.750;9.314;2023-04-06T13:30:24;17.50;61.00
40676;DHT22;26359;48.750;9.314;2023-04-06T13:32:50;17.50;60.10
40676;DHT22;26359;48.750;9.314;2023-04-06T13:35:16;17.60;58.50
40676;DHT22;26359;48.750;9.314;2023-04-06T13:37:42;17.60;58.60
40676;DHT22;26359;48.750;9.314;2023-04-06T13:40:08;17.80;60.90
40676;DHT22;26359;48.750;9.314;2023-04-06T13:42:34;17.90;57.50
40676;DHT22;26359;48.750;9.314;2023-04-06T13:45:01;17.50;58.50
40676;DHT22;26359;48.750;9.314;2023-04-06T13:47:26;17.60;59.10
40676;DHT22;26359;48.750;9.314;2023-04-06T13:49:52;17.00;57.80
40676;DHT22;26359;48.750;9.314;2023-04-06T13:52:18;17.10;61.70
40676;DHT22;26359;48.750;9.314;2023-04-06T13:54:44;17.30;59.90
40676;DHT22;26359;48.750;9.314;2023-04-06T13:57:10;17.60;59.10
40676;DHT22;26359;48.750;9.314;2023-04-06T13:59:37;17.70;58.60
40676;DHT22;26359;48.750;9.314;2023-04-06T14:02:04;17.10;58.30
40676;DHT22;26359;48.750;9.314;2023-04-06T14:04:30;17.10;58.40
40676;DHT22;26359;48.750;9.314;2023-04-06T14:06:56;17.10;59.60
40676;DHT22;26359;48.750;9.314;2023-04-06T14:09:22;16.90;60.80
40676;DHT22;26359;48.750;9.314;2023-04-06T14:11:49;17.00;59.40
40676;DHT22;26359;48.750;9.314;2023-04-06T14:14:15;16.90;60.10
40676;DHT22;26359;48.750;9.314;2023-04-06T14:16:40;16.80;58.70
40676;DHT22;26359;48.750;9.314;2023-04-06T14:19:12;16.90;59.10
40676;DHT22;26359;48.750;9.314;2023-04-06T14:21:41;16.60;58.60
40676;DHT22;26359;48.750;9.314;2023-04-06T14:24:07;16.70;59.70
40676;DHT22;26359;48.750;9.314;2023-04-06T14:26:36;16.40;58.50
40676;DHT22;26359;48.750;9.314;2023-04-06T14:29:02;16.30;60.90
40676;DHT22;26359;48.750;9.314;2023-04-06T14:31:29;16.30;59.60
40676;DHT22;26359;48.750;9.314;2023-04-06T14:33:55;16.10;61.60
40676;DHT22;26359;48.750;9.314;2023-04-06T14:36:20;16.00;61.20
40676;DHT22;26359;48.750;9.314;2023-04-06T14:38:46;15.70;58.00
40676;DHT22;26359;48.750;9.314;2023-04-06T14:41:16;15.60;59.80
40676;DHT22;26359;48.750;9.314;2023-04-06T14:43:42;15.60;60.60
40676;DHT22;26359;48.750;9.314;2023-04-06T14:46:08;15.60;60.30
40676;DHT22;26359;48.750;9.314;2023-04-06T14:48:35;15.60;63.20
40676;DHT22;26359;48.750;9.314;2023-04-06T14:51:00;15.70;62.30
40676;DHT22;26359;48.750;9.314;2023-04-06T14:53:26;15.90;62.70
40676;DHT22;26359;48.750;9.314;2023-04-06T14:55:52;16.10;59.30
40676;DHT22;26359;48.750;9.314;2023-04-06T14:58:21;16.00;60.60
40676;DHT22;26359;48.750;9.314;2023-04-06T15:00:48;16.10;60.50
40676;DHT22;26359;48.750;9.314;2023-04-06T15:03:13;15.90;59.60
40676;DHT22;26359;48.750;9.314;2023-04-06T15:05:41;15.80;60.00
40676;DHT22;26359;48.750;9.314;2023-04-06T15:08:07;15.80;59.80
40676;DHT22;26359;48.750;9.314;2023-04-06T15:10:34;15.40;59.70
40676;DHT22;26359;48.750;9.314;2023-04-06T15:13:00;15.20;61.00
40676;DHT22;26359;48.750;9.314;2023-04-06T15:15:26;15.20;60.40
40676;DHT22;26359;48.750;9.314;2023-04-06T15:17:51;15.10;59.80
40676;DHT22;26359;48.750;9.314;2023-04-06T15:20:17;14.90;61.40
40676;DHT22;26359;48.750;9.314;2023-04-06T15:22:43;14.70;62.10
40676;DHT22;26359;48.750;9.314;2023-04-06T15:25:09;14.80;62.40
40676;DHT22;26359;48.750;9.314;2023-04-06T15:27:34;14.90;62.50
40676;DHT22;26359;48.750;9.314;2023-04-06T15:30:00;15.00;61.50
40676;DHT22;26359;48.750;9.314;2023-04-06T15:32:25;15.10;62.60
40676;DHT22;26359;48.750;9.314;2023-04-06T15:34:53;15.20;60.30
40676;DHT22;26359;48.750;9.314;2023-04-06T15:37:19;15.00;62.80
40676;DHT22;26359;48.750;9.314;2023-04-06T15:39:45;15.20;63.40